Time;durP1;ratioP1;P1;durP2;ratioP2;P2;SDS_P1;SDS_P2;PMS_P1;PMS_P2;Temp;Humidity;BMP_temperature;BMP_pressure;BME280_temperature;BME280_humidity;BME280_pressure;Samples;Min_cycle;Max_cycle;Signal;HPM_P1;HPM_P2
2023/09/12 00:00:40;;;;;;;0.90;0.90;;;;;;;19.27;100.00;100143.00;5030526;28;20223;-78
2023/09/12 00:03:07;;;;;;;1.15;1.05;;;;;;;19.25;100.00;100142.19;5029989;28;20239;-78
2023/09/12 00:05:34;;;;;;;0.95;0.95;;;;;;;19.17;100.00;100140.63;5021134;28;20609;-77
2023/09/12 00:08:01;;;;;;;1.27;0.68;;;;;;;19.02;100.00;100143.75;5021626;28;20246;-78
2023/09/12 00:10:29;;;;;;;1.40;1.35;;;;;;;18.97;100.00;100142.16;5032745;28;20243;-77
2023/09/12 00:12:56;;;;;;;1.23;1.13;;;;;;;18.81;100.00;100141.72;5014439;28;20237;-78
2023/09/12 00:15:22;;;;;;;2.22;2.03;;;;;;;18.75;100.00;100136.53;5038663;28;20230;-78
2023/09/12 00:17:49;;;;;;;0.60;0.60;;;;;;;18.87;100.00;100144.22;5022786;28;20235;-78
2023/09/12 00:20:16;;;;;;;0.82;0.82;;;;;;;18.88;100.00;100142.41;5025898;28;20256;-78
2023/09/12 00:22:43;;;;;;;1.60;1.42;;;;;;;18.84;100.00;100150.56;5000248;28;20253;-78
2023/09/12 00:25:10;;;;;;;0.85;0.85;;;;;;;18.68;100.00;100135.84;5038384;28;20226;-78
2023/09/12 00:27:37;;;;;;;1.83;0.75;;;;;;;18.53;100.00;100137.13;5031762;28;20222;-78
2023/09/12 00:30:04;;;;;;;0.65;0.65;;;;;;;18.52;100.00;100143.41;5027062;28;20230;-78
2023/09/12 00:32:31;;;;;;;0.57;0.52;;;;;;;18.43;100.00;100135.63;5032956;28;20226;-78
2023/09/12 00:34:58;;;;;;;1.02;1.00;;;;;;;18.33;100.00;100131.44;5028517;28;20234;-78
2023/09/12 00:37:24;;;;;;;0.73;0.73;;;;;;;18.42;100.00;100133.88;5037943;28;20236;-78
2023/09/12 00:39:51;;;;;;;0.57;0.57;;;;;;;18.66;100.00;100152.88;5028955;28;20227;-78
2023/09/12 00:42:18;;;;;;;0.82;0.82;;;;;;;18.49;100.00;100135.47;5030068;28;20246;-78
2023/09/12 00:44:45;;;;;;;0.82;0.52;;;;;;;18.45;100.00;100143.63;5018920;28;20284;-78
2023/09/12 00:47:13;;;;;;;1.20;1.10;;;;;;;18.38;100.00;100126.84;5031027;28;20625;-77
2023/09/12 00:49:40;;;;;;;1.20;1.08;;;;;;;18.39;100.00;100130.41;5024023;28;20222;-78
2023/09/12 00:52:07;;;;;;;1.13;0.85;;;;;;;18.41;100.00;100134.78;5007478;28;20238;-78
2023/09/12 00:54:34;;;;;;;0.65;0.65;;;;;;;18.32;100.00;100136.84;5030936;28;20238;-78
2023/09/12 00:57:01;;;;;;;0.85;0.85;;;;;;;18.12;100.00;100123.97;5031276;28;20306;-78
2023/09/12 00:59:28;;;;;;;0.32;0.32;;;;;;;18.01;100.00;100116.22;5034821;28;20226;-77
2023/09/12 01:01:55;;;;;;;0.80;0.80;;;;;;;18.08;100.00;100122.28;5027394;28;20222;-78
2023/09/12 01:04:22;;;;;;;0.57;0.57;;;;;;;18.18;100.00;100135.38;5027419;28;20319;-78
2023/09/12 01:07:02;;;;;;;1.42;1.33;;;;;;;18.07;100.00;100126.78;5032292;28;20340;-77
2023/09/12 01:09:29;;;;;;;1.38;1.27;;;;;;;18.18;100.00;100142.53;5046045;28;20656;-77
2023/09/12 01:11:56;;;;;;;0.63;0.63;;;;;;;18.23;100.00;100146.88;5020891;28;20222;-77
2023/09/12 01:14:23;;;;;;;1.55;1.02;;;;;;;18.27;100.00;100150.34;5028870;28;20226;-77
2023/09/12 01:16:49;;;;;;;0.50;0.50;;;;;;;18.19;100.00;100153.19;5030176;28;20234;-78
2023/09/12 01:19:17;;;;;;;1.85;0.93;;;;;;;17.92;100.00;100121.81;5025161;28;20245;-78
2023/09/12 01:22:02;;;;;;;0.57;0.57;;;;;;;18.00;100.00;100127.84;5022363;28;20234;-78
2023/09/12 01:25:07;;;;;;;3.30;1.33;;;;;;;17.87;100.00;100126.41;5028180;28;20242;-78
2023/09/12 01:27:46;;;;;;;1.25;1.25;;;;;;;17.71;100.00;100119.69;5037512;28;20272;-77
2023/09/12 01:30:16;;;;;;;1.20;1.10;;;;;;;17.80;100.00;100133.72;5031600;28;20238;-77
2023/09/12 01:32:43;;;;;;;0.35;0.35;;;;;;;17.89;100.00;100137.94;5024486;28;20231;-78
2023/09/12 01:35:10;;;;;;;1.63;1.55;;;;;;;17.92;100.00;100144.09;5030446;28;20222;-78
2023/09/12 01:37:37;;;;;;;1.77;1.02;;;;;;;18.07;100.00;100155.31;5041024;28;20241;-77
2023/09/12 01:40:04;;;;;;;3.10;0.68;;;;;;;18.03;100.00;100159.88;5020316;28;20242;-78
2023/09/12 01:42:40;;;;;;;3.10;1.48;;;;;;;18.02;100.00;100163.47;5026544;28;20242;-77
2023/09/12 01:45:10;;;;;;;2.13;1.30;;;;;;;18.05;100.00;100159.84;5033087;28;20256;-77
2023/09/12 01:47:38;;;;;;;3.13;1.70;;;;;;;18.01;100.00;100152.81;5038018;28;20254;-78
2023/09/12 01:50:07;;;;;;;0.57;0.57;;;;;;;18.18;100.00;100158.59;5034189;28;20253;-78
2023/09/12 01:52:34;;;;;;;0.40;0.40;;;;;;;18.17;100.00;100151.50;5033701;28;20230;-78
2023/09/12 01:55:02;;;;;;;1.13;1.10;;;;;;;18.15;100.00;100156.88;5023936;28;20250;-78
2023/09/12 01:57:29;;;;;;;1.23;1.13;;;;;;;18.06;100.00;100158.91;5031755;28;20230;-78
2023/09/12 01:59:56;;;;;;;0.80;0.80;;;;;;;18.05;100.00;100150.00;5014857;28;20701;-78
2023/09/12 02:02:22;;;;;;;1.35;0.55;;;;;;;18.04;100.00;100148.25;5030431;28;20226;-77
2023/09/12 02:05:18;;;;;;;1.92;1.63;;;;;;;18.15;100.00;100151.53;5035626;28;20245;-78
2023/09/12 02:07:46;;;;;;;1.60;1.00;;;;;;;18.28;100.00;100149.44;5016208;28;20230;-77
2023/09/12 02:10:13;;;;;;;0.68;0.68;;;;;;;18.31;100.00;100145.81;5029250;28;20227;-78
2023/09/12 02:12:40;;;;;;;0.82;0.82;;;;;;;18.27;100.00;100150.34;5020266;28;20250;-78
2023/09/12 02:15:07;;;;;;;5.40;1.20;;;;;;;18.04;100.00;100148.25;5022625;28;20701;-78
2023/09/12 02:17:34;;;;;;;0.73;0.73;;;;;;;17.99;100.00;100146.63;5042679;28;20312;-78
2023/09/12 02:20:03;;;;;;;1.45;1.35;;;;;;;18.01;100.00;100147.47;5035150;28;20244;-78
2023/09/12 02:22:29;;;;;;;0.82;0.60;;;;;;;18.18;100.00;100153.25;5039724;28;20226;-78
2023/09/12 02:24:56;;;;;;;4.47;0.82;;;;;;;18.31;100.00;100159.19;5034967;28;20230;-78
2023/09/12 02:27:23;;;;;;;0.43;0.43;;;;;;;18.32;100.00;100164.50;5024618;28;20225;-78
2023/09/12 02:29:49;;;;;;;0.77;0.77;;;;;;;18.30;100.00;100160.97;5046499;28;20348;-78
2023/09/12 02:32:16;;;;;;;0.98;0.98;;;;;;;18.13;100.00;100149.81;5035263;28;20226;-78
2023/09/12 02:34:43;;;;;;;0.90;0.90;;;;;;;18.08;100.00;100141.03;5029725;28;20238;-78
2023/09/12 02:37:10;;;;;;;0.55;0.55;;;;;;;18.10;100.00;100142.75;5030886;28;20294;-78
2023/09/12 02:39:36;;;;;;;0.45;0.45;;;;;;;18.06;100.00;100138.41;5038857;28;20245;-78
2023/09/12 02:42:03;;;;;;;2.53;0.95;;;;;;;17.95;100.00;100140.47;5031813;28;20735;-78
2023/09/12 02:44:30;;;;;;;3.65;1.45;;;;;;;17.89;100.00;100138.81;5040458;28;20295;-78
2023/09/12 02:46:57;;;;;;;1.30;1.20;;;;;;;17.87;100.00;100137.13;5030885;28;20244;-78
2023/09/12 02:49:23;;;;;;;0.55;0.55;;;;;;;17.84;100.00;100132.72;5025268;28;20232;-78
2023/09/12 02:51:50;;;;;;;1.42;1.33;;;;;;;17.86;100.00;100136.22;5037225;28;20226;-78
2023/09/12 02:54:17;;;;;;;1.08;0.98;;;;;;;17.84;100.00;100147.88;5039467;28;20241;-78
2023/09/12 02:56:44;;;;;;;2.25;2.10;;;;;;;17.79;100.00;100137.31;5024537;28;20229;-78
2023/09/12 02:59:11;;;;;;;2.50;2.35;;;;;;;17.88;100.00;100146.91;5038137;28;20248;-78
2023/09/12 03:01:38;;;;;;;0.60;0.60;;;;;;;17.79;100.00;100147.13;5038125;28;20317;-77
2023/09/12 03:04:04;;;;;;;1.33;1.27;;;;;;;17.77;100.00;100139.13;5034280;28;20242;-78
2023/09/12 03:06:31;;;;;;;2.65;1.75;;;;;;;17.81;100.00;100145.28;5040792;28;20233;-78
2023/09/12 03:08:58;;;;;;;6.80;1.95;;;;;;;17.88;100.00;100153.13;5032278;28;20261;-78
2023/09/12 03:11:29;;;;;;;1.30;1.13;;;;;;;18.01;100.00;100161.72;5024715;28;20250;-78
2023/09/12 03:13:56;;;;;;;2.78;1.65;;;;;;;18.03;100.00;100153.66;5029620;28;20252;-78
2023/09/12 03:16:24;;;;;;;0.70;0.70;;;;;;;18.03;100.00;100165.22;5039002;28;20222;-78
2023/09/12 03:18:51;;;;;;;0.95;0.93;;;;;;;18.08;100.00;100166.00;5027467;28;20227;-78
2023/09/12 03:21:18;;;;;;;3.67;1.02;;;;;;;18.13;100.00;100171.22;5040747;28;20226;-78
2023/09/12 03:23:44;;;;;;;0.70;0.70;;;;;;;18.19;100.00;100163.03;5020846;28;20255;-78
2023/09/12 03:26:11;;;;;;;0.75;0.75;;;;;;;18.21;100.00;100161.22;5014367;28;20295;-78
2023/09/12 03:28:38;;;;;;;1.45;1.35;;;;;;;18.24;100.00;100166.50;5034678;28;20702;-78
2023/09/12 03:31:13;;;;;;;0.77;0.77;;;;;;;18.28;100.00;100170.84;5036775;28;20239;-78
2023/09/12 03:33:41;;;;;;;1.33;1.33;;;;;;;18.32;100.00;100174.31;5029927;28;20713;-78
2023/09/12 03:36:08;;;;;;;0.60;0.60;;;;;;;18.29;100.00;100177.09;5017190;28;20249;-78
2023/09/12 03:38:35;;;;;;;0.77;0.60;;;;;;;18.36;100.00;100178.69;5020640;28;20261;-78
2023/09/12 03:41:02;;;;;;;1.33;1.05;;;;;;;18.40;100.00;100180.34;5028228;28;20245;-77
2023/09/12 03:43:30;;;;;;;0.60;0.60;;;;;;;18.39;100.00;100183.94;5022212;28;20320;-77
2023/09/12 03:45:56;;;;;;;0.98;0.98;;;;;;;18.41;100.00;100188.34;5003074;28;20231;-78
2023/09/12 03:48:23;;;;;;;0.55;0.55;;;;;;;18.40;100.00;100186.59;5024016;28;20246;-78
2023/09/12 03:50:50;;;;;;;0.82;0.82;;;;;;;18.38;100.00;100187.53;5020539;28;20234;-78
2023/09/12 03:53:17;;;;;;;1.95;0.90;;;;;;;18.42;100.00;100198.13;5034551;28;20241;-78
2023/09/12 03:55:44;;;;;;;1.63;1.58;;;;;;;18.42;100.00;100195.44;5021768;28;20226;-78
2023/09/12 03:58:10;;;;;;;0.77;0.77;;;;;;;18.44;100.00;100203.44;5037980;28;20238;-77
2023/09/12 04:00:37;;;;;;;1.25;1.25;;;;;;;18.43;100.00;100199.88;5037927;28;20588;-77
2023/09/12 04:03:04;;;;;;;2.17;2.03;;;;;;;18.40;100.00;100196.41;5024886;28;20262;-78
2023/09/12 04:05:31;;;;;;;0.85;0.73;;;;;;;18.35;100.00;100199.22;5030322;28;20242;-78
2023/09/12 04:07:58;;;;;;;1.60;1.50;;;;;;;18.34;100.00;100194.78;5026813;28;20594;-78
2023/09/12 04:10:24;;;;;;;0.80;0.80;;;;;;;18.38;100.00;100204.50;5041130;28;20248;-78
2023/09/12 04:12:51;;;;;;;5.80;2.28;;;;;;;18.37;100.00;100201.84;5033539;28;20351;-78
2023/09/12 04:15:18;;;;;;;0.65;0.65;;;;;;;18.39;100.00;100200.91;5038543;28;20226;-78
2023/09/12 04:17:45;;;;;;;5.38;2.20;;;;;;;18.34;100.00;100194.78;5031889;28;20238;-78
2023/09/12 04:20:15;;;;;;;0.75;0.75;;;;;;;18.35;100.00;100209.94;5032622;28;20231;-78
2023/09/12 04:22:42;;;;;;;1.70;1.60;;;;;;;18.38;100.00;100220.56;5024531;28;20241;-79
2023/09/12 04:25:09;;;;;;;2.63;1.63;;;;;;;18.40;100.00;100215.16;5026849;28;20295;-78
2023/09/12 04:27:36;;;;;;;1.63;1.45;;;;;;;18.41;100.00;100203.53;5029805;28;20280;-78
2023/09/12 04:30:03;;;;;;;1.25;1.23;;;;;;;18.43;100.00;100201.69;5031934;28;20240;-78
2023/09/12 04:32:30;;;;;;;1.10;1.02;;;;;;;18.54;100.00;100199.59;5035106;28;20230;-78
2023/09/12 04:34:57;;;;;;;1.52;1.42;;;;;;;18.59;100.00;100199.47;5031959;28;20230;-78
2023/09/12 04:37:24;;;;;;;2.05;1.95;;;;;;;18.61;100.00;100211.94;5037828;28;20238;-78
2023/09/12 04:39:51;;;;;;;0.80;0.80;;;;;;;18.42;100.00;100191.91;5021283;28;20230;-79
2023/09/12 04:42:17;;;;;;;3.30;0.82;;;;;;;18.41;100.00;100191.03;5005980;28;20227;-78
2023/09/12 04:44:44;;;;;;;2.05;1.13;;;;;;;18.49;100.00;100194.38;5026935;28;20323;-78
2023/09/12 04:47:12;;;;;;;2.88;2.15;;;;;;;18.42;100.00;100198.13;5042906;28;20720;-78
2023/09/12 04:49:39;;;;;;;1.20;1.17;;;;;;;18.34;100.00;100207.28;5033754;28;20277;-78
2023/09/12 04:52:06;;;;;;;3.65;1.15;;;;;;;18.32;100.00;100203.78;5044678;28;20250;-78
2023/09/12 04:54:33;;;;;;;0.40;0.40;;;;;;;18.30;100.00;100192.22;5046590;28;20230;-78
2023/09/12 04:57:00;;;;;;;3.03;2.15;;;;;;;18.35;100.00;100193.88;5012590;28;20241;-78
2023/09/12 04:59:27;;;;;;;0.82;0.82;;;;;;;18.38;100.00;100184.88;5025152;28;20321;-78
2023/09/12 05:01:54;;;;;;;8.38;3.47;;;;;;;18.39;100.00;100189.31;5033831;28;20320;-78
2023/09/12 05:04:21;;;;;;;1.50;1.38;;;;;;;18.30;100.00;100201.13;5042325;28;20227;-78
2023/09/12 05:06:48;;;;;;;2.90;2.05;;;;;;;18.18;100.00;100202.31;5030939;28;20606;-78
2023/09/12 05:09:16;;;;;;;1.15;1.05;;;;;;;18.12;100.00;100201.56;5041641;28;20238;-78
2023/09/12 05:11:44;;;;;;;0.43;0.43;;;;;;;18.18;100.00;100196.06;5023506;28;20318;-79
2023/09/12 05:14:10;;;;;;;0.68;0.68;;;;;;;18.32;100.00;100199.28;5032340;28;20359;-78
2023/09/12 05:16:37;;;;;;;0.80;0.80;;;;;;;18.38;100.00;100198.25;5014685;28;20315;-78
2023/09/12 05:19:04;;;;;;;1.13;1.13;;;;;;;18.21;100.00;100194.22;5019349;28;20270;-78
2023/09/12 05:21:31;;;;;;;0.90;0.90;;;;;;;18.32;100.00;100196.63;5035112;28;20238;-78
2023/09/12 05:23:58;;;;;;;1.75;1.13;;;;;;;18.36;100.00;100200.09;5034992;28;20234;-78
2023/09/12 05:26:25;;;;;;;1.50;1.38;;;;;;;18.31;100.00;100191.31;5038267;28;20245;-78
2023/09/12 05:28:52;;;;;;;1.48;1.38;;;;;;;18.34;100.00;100207.28;5031450;28;20234;-78
2023/09/12 05:31:19;;;;;;;0.35;0.35;;;;;;;18.15;100.00;100199.69;5032164;28;20235;-78
2023/09/12 05:33:46;;;;;;;1.10;1.08;;;;;;;18.18;100.00;100212.13;5008951;28;20314;-78
2023/09/12 05:36:13;;;;;;;0.75;0.75;;;;;;;18.06;100.00;100197.25;5029774;28;20731;-78
2023/09/12 05:38:39;;;;;;;0.35;0.35;;;;;;;18.09;100.00;100207.88;5043207;28;20804;-78
2023/09/12 05:41:07;;;;;;;4.07;2.08;;;;;;;17.95;100.00;100196.66;5041259;28;20226;-78
2023/09/12 05:43:33;;;;;;;0.98;0.98;;;;;;;17.95;100.00;100202.00;5034909;28;20242;-78
2023/09/12 05:46:00;;;;;;;5.32;2.55;;;;;;;17.91;100.00;100211.03;5011888;28;20237;-78
2023/09/12 05:48:27;;;;;;;1.98;1.88;;;;;;;17.91;100.00;100209.22;5038308;28;20254;-78
2023/09/12 05:50:53;;;;;;;1.50;1.40;;;;;;;17.90;100.00;100207.47;5026559;28;20712;-78
2023/09/12 05:53:20;;;;;;;1.00;1.00;;;;;;;17.94;100.00;100218.09;5030108;28;20231;-78
2023/09/12 05:55:47;;;;;;;1.63;1.45;;;;;;;17.80;100.00;100219.31;5037741;28;20226;-78
2023/09/12 05:58:14;;;;;;;1.15;0.88;;;;;;;17.80;100.00;100226.44;5037569;28;20296;-78
2023/09/12 06:00:41;;;;;;;1.85;1.75;;;;;;;17.90;100.00;100247.59;5027243;28;20227;-78
2023/09/12 06:03:08;;;;;;;1.85;0.75;;;;;;;17.89;100.00;100253.88;5027323;28;20311;-78
2023/09/12 06:05:35;;;;;;;1.00;1.00;;;;;;;18.02;100.00;100258.91;5032336;28;20333;-78
2023/09/12 06:08:02;;;;;;;1.38;1.27;;;;;;;18.11;100.00;100267.59;5027567;28;21566;-78
2023/09/12 06:10:28;;;;;;;1.33;1.27;;;;;;;18.08;100.00;100269.47;5029294;28;20227;-78
2023/09/12 06:12:55;;;;;;;2.40;1.85;;;;;;;18.10;100.00;100271.19;5032489;28;20245;-78
2023/09/12 06:15:22;;;;;;;2.10;1.42;;;;;;;18.24;100.00;100270.88;5030215;28;20231;-78
2023/09/12 06:17:49;;;;;;;2.20;2.00;;;;;;;18.34;100.00;100291.16;5019656;28;20219;-79
2023/09/12 06:20:16;;;;;;;1.02;1.02;;;;;;;18.37;100.00;100292.88;5015843;28;20219;-78
2023/09/12 06:22:43;;;;;;;2.20;2.00;;;;;;;18.43;100.00;100293.59;5030125;28;20284;-78
2023/09/12 06:25:10;;;;;;;0.45;0.43;;;;;;;18.47;100.00;100292.59;5024152;28;20349;-79
2023/09/12 06:27:37;;;;;;;2.50;2.33;;;;;;;18.57;100.00;100303.97;5029049;28;20242;-78
2023/09/12 06:30:04;;;;;;;1.40;1.33;;;;;;;18.61;100.00;100308.34;5032141;27;20325;-78
2023/09/12 06:32:30;;;;;;;2.38;2.05;;;;;;;18.68;100.00;100311.75;5035230;28;20230;-78
2023/09/12 06:34:57;;;;;;;1.75;1.65;;;;;;;18.65;100.00;100303.81;5022941;28;20231;-78
2023/09/12 06:37:24;;;;;;;2.25;1.48;;;;;;;18.67;100.00;100305.50;5024225;28;20242;-78
2023/09/12 06:39:51;;;;;;;1.20;1.20;;;;;;;18.73;100.00;100300.00;5016707;28;20318;-78
2023/09/12 06:42:18;;;;;;;2.38;1.58;;;;;;;18.77;100.00;100300.78;5031655;28;20235;-78
2023/09/12 06:44:45;;;;;;;1.90;1.80;;;;;;;18.78;100.00;100286.47;5036197;28;20250;-78
2023/09/12 06:47:13;;;;;;;1.88;1.75;;;;;;;18.86;100.00;100292.50;5039241;28;20226;-78
2023/09/12 06:49:39;;;;;;;4.13;1.35;;;;;;;18.89;100.00;100300.47;5048071;28;20226;-78
2023/09/12 06:52:06;;;;;;;2.00;1.77;;;;;;;19.03;100.00;100308.13;5035407;28;20234;-78
2023/09/12 06:54:33;;;;;;;1.02;1.02;;;;;;;19.16;100.00;100304.19;5027173;28;20318;-78
2023/09/12 06:57:00;;;;;;;1.30;1.20;;;;;;;19.27;100.00;100326.22;5019327;28;20234;-77
2023/09/12 06:59:27;;;;;;;0.57;0.50;;;;;;;19.27;100.00;100320.84;5021224;28;20237;-78
2023/09/12 07:01:53;;;;;;;1.92;1.83;;;;;;;19.27;100.00;100320.84;5023050;28;20262;-78
2023/09/12 07:04:21;;;;;;;1.55;1.45;;;;;;;19.39;100.00;100314.25;5036691;28;20234;-78
2023/09/12 07:06:47;;;;;;;1.92;1.58;;;;;;;19.43;100.00;100308.75;5040019;28;20234;-78
2023/09/12 07:09:14;;;;;;;0.95;0.95;;;;;;;19.56;100.00;100317.38;5038716;28;20226;-78
2023/09/12 07:11:41;;;;;;;2.00;1.90;;;;;;;19.71;100.00;100318.72;5024860;28;20257;-78
2023/09/12 07:14:11;;;;;;;0.85;0.85;;;;;;;19.76;100.00;100298.00;5026916;28;20242;-78
2023/09/12 07:16:38;;;;;;;1.27;1.17;;;;;;;19.83;100.00;100286.16;5034301;28;20309;-77
2023/09/12 07:19:05;;;;;;;0.65;0.65;;;;;;;19.94;100.00;100278.63;5029856;28;20320;-78
2023/09/12 07:21:32;;;;;;;1.40;1.33;;;;;;;19.98;100.00;100272.25;5040513;28;20242;-78
2023/09/12 07:23:59;;;;;;;8.25;6.20;;;;;;;20.10;100.00;100279.91;5030855;28;20230;-78
2023/09/12 07:26:26;;;;;;;3.78;2.97;;;;;;;20.05;100.00;100265.75;5027974;28;20238;-78
2023/09/12 07:28:54;;;;;;;4.40;3.05;;;;;;;20.15;100.00;100252.91;5008615;28;20235;-78
2023/09/12 07:31:21;;;;;;;1.58;1.48;;;;;;;20.19;100.00;100259.06;5015892;28;20362;-78
2023/09/12 07:33:48;;;;;;;3.67;2.28;;;;;;;20.34;100.00;100254.03;5019725;28;20275;-78
2023/09/12 07:36:15;;;;;;;1.23;1.23;;;;;;;20.47;100.00;100254.53;5030291;28;20347;-78
2023/09/12 07:38:45;;;;;;;1.65;1.55;;;;;;;20.43;100.00;100242.13;5018296;28;20281;-78
2023/09/12 07:41:12;;;;;;;1.05;1.05;;;;;;;20.54;100.00;100239.09;5045146;28;20227;-77
2023/09/12 07:43:40;;;;;;;1.27;1.27;;;;;;;20.57;100.00;100225.53;5006714;28;20234;-78
2023/09/12 07:46:07;;;;;;;1.42;1.40;;;;;;;20.74;100.00;100224.00;5009206;28;20238;-78
2023/09/12 07:48:34;;;;;;;6.38;2.78;;;;;;;20.88;100.00;100231.59;5009428;28;20226;-78
2023/09/12 07:51:02;;;;;;;8.27;4.13;;;;;;;20.96;100.00;100229.50;5019688;28;20294;-78
2023/09/12 07:53:29;;;;;;;1.35;1.27;;;;;;;21.00;100.00;100220.41;5013357;28;20257;-78
2023/09/12 07:55:59;;;;;;;1.85;1.65;;;;;;;21.11;100.00;100220.00;5034025;28;20236;-78
2023/09/12 07:58:26;;;;;;;3.10;1.48;;;;;;;21.45;100.00;100242.94;5030596;28;20239;-78
2023/09/12 08:00:52;;;;;;;3.25;2.33;;;;;;;21.33;100.00;100229.03;5018465;28;20231;-78
2023/09/12 08:03:19;;;;;;;1.77;1.67;;;;;;;21.40;100.00;100218.91;5032477;28;20230;-78
2023/09/12 08:05:59;;;;;;;1.90;1.77;;;;;;;21.65;100.00;100219.72;5033857;28;20241;-78
2023/09/12 08:08:26;;;;;;;1.70;1.60;;;;;;;21.63;100.00;100205.44;5037854;28;20241;-78
2023/09/12 08:10:53;;;;;;;3.15;1.98;;;;;;;21.72;100.00;100210.44;5034607;28;20242;-78
2023/09/12 08:13:21;;;;;;;4.32;0.98;;;;;;;21.92;100.00;100206.06;5031197;28;20241;-78
2023/09/12 08:15:48;;;;;;;1.02;1.02;;;;;;;21.93;100.00;100195.22;5037114;28;20234;-78
2023/09/12 08:18:15;;;;;;;1.27;1.20;;;;;;;22.09;100.00;100189.25;5036027;28;20276;-78
2023/09/12 08:20:43;;;;;;;1.95;1.85;;;;;;;22.32;100.00;100190.03;5038699;28;20260;-79
2023/09/12 08:23:10;;;;;;;1.85;1.60;;;;;;;22.39;100.00;100181.69;5033758;28;20238;-78
2023/09/12 08:25:36;;;;;;;2.95;1.77;;;;;;;22.54;100.00;100189.09;5022154;28;20238;-78
2023/09/12 08:28:03;;;;;;;1.50;1.42;;;;;;;22.87;100.00;100208.31;5018168;28;20247;-78
2023/09/12 08:30:30;;;;;;;2.08;1.17;;;;;;;22.95;100.00;100182.75;5050601;28;20225;-79
2023/09/12 08:32:57;;;;;;;2.55;1.85;;;;;;;23.09;100.00;100183.94;5039566;28;20241;-78
2023/09/12 08:35:23;;;;;;;0.63;0.63;;;;;;;23.14;100.00;100163.91;5024306;28;20231;-78
2023/09/12 08:37:50;;;;;;;2.03;1.88;;;;;;;23.38;100.00;100161.00;5020144;28;20230;-79
2023/09/12 08:40:17;;;;;;;1.20;1.20;;;;;;;23.50;100.00;100141.53;5031241;28;20289;-78
2023/09/12 08:42:44;;;;;;;1.92;1.55;;;;;;;23.37;100.00;100099.88;5026761;28;20229;-78
2023/09/12 08:45:16;;;;;;;1.45;1.35;;;;;;;23.78;100.00;100116.78;5034324;28;20243;-78
2023/09/12 08:47:45;;;;;;;2.00;1.90;;;;;;;23.99;100.00;100109.41;5030352;28;20222;-79
2023/09/12 08:50:15;;;;;;;0.88;0.88;;;;;;;24.13;100.00;100086.13;5036846;28;20233;-79
2023/09/12 08:52:42;;;;;;;5.50;3.83;;;;;;;24.34;100.00;100089.56;5044858;28;20237;-80
2023/09/12 08:55:30;;;;;;;1095.78;999.90;;;;;;;24.46;100.00;100078.09;5019317;28;20225;-79
2023/09/12 08:57:57;;;;;;;4.57;2.70;;;;;;;24.53;100.00;100054.31;5012063;28;20787;-79
2023/09/12 09:00:24;;;;;;;1.10;1.00;;;;;;;24.66;100.00;100032.88;5033926;28;20237;-79
2023/09/12 09:02:51;;;;;;;4.88;2.47;;;;;;;24.88;100.00;100017.22;5047951;28;20325;-80
2023/09/12 09:05:20;;;;;;;4.05;2.10;;;;;;;25.03;100.00;100010.97;5033875;28;20246;-79
2023/09/12 09:07:49;;;;;;;7.93;3.28;;;;;;;25.14;100.00;99984.19;5037693;28;20261;-80
2023/09/12 09:10:20;;;;;;;3.58;2.28;;;;;;;24.89;100.00;99924.31;5020126;28;20313;-79
2023/09/12 09:13:06;;;;;;;2.97;2.35;;;;;;;24.95;100.00;99932.06;5029167;28;20241;-79
2023/09/12 09:15:33;;;;;;;646.17;608.15;;;;;;;25.17;100.00;99950.66;5020334;28;20232;-79
2023/09/12 09:18:03;;;;;;;11.63;3.95;;;;;;;25.28;100.00;99953.59;5023436;28;20230;-79
2023/09/12 09:20:34;;;;;;;7.18;3.10;;;;;;;25.71;100.00;99962.75;5038121;28;20763;-79
2023/09/12 09:23:11;;;;;;;9.50;4.18;;;;;;;25.67;100.00;99928.69;5034069;28;20229;-80
2023/09/12 09:25:43;;;;;;;1113.85;999.90;;;;;;;25.70;100.00;99924.94;5041980;28;20237;-79
2023/09/12 09:28:20;;;;;;;688.92;648.20;;;;;;;25.74;100.00;99896.69;5043147;28;20240;-79
2023/09/12 09:30:50;;;;;;;819.80;768.25;;;;;;;25.74;100.00;99875.91;5036062;28;20229;-80
2023/09/12 09:33:18;;;;;;;3.53;2.00;;;;;;;25.82;100.00;99843.78;5026430;28;20231;-79
2023/09/12 09:35:49;;;;;;;695.53;651.35;;;;;;;26.11;100.00;99868.19;5032002;28;20218;-79
2023/09/12 09:38:19;;;;;;;8.55;2.88;;;;;;;26.20;100.00;99845.91;5029329;28;20227;-80
2023/09/12 09:40:46;;;;;;;28.30;7.97;;;;;;;26.38;100.00;99831.19;5021414;28;20257;-79
2023/09/12 09:43:14;;;;;;;14.52;3.67;;;;;;;26.68;100.00;99827.41;5037593;28;20253;-80
2023/09/12 09:45:45;;;;;;;12.70;3.72;;;;;;;26.78;100.00;99787.84;5020210;28;20249;-79
2023/09/12 09:48:22;;;;;;;8.75;2.65;;;;;;;26.93;100.00;99772.34;5021341;28;20323;-80
2023/09/12 09:50:50;;;;;;;74.90;46.30;;;;;;;27.40;100.00;99785.38;5026426;28;20226;-80
2023/09/12 09:53:16;;;;;;;59.83;55.22;;;;;;;27.27;100.00;99760.03;5038823;28;20238;-80
2023/09/12 09:55:43;;;;;;;12.73;3.70;;;;;;;27.36;100.00;99735.00;5068971;28;20249;-80
2023/09/12 09:58:16;;;;;;;23.13;5.35;;;;;;;27.76;100.00;99745.72;5037513;28;20296;-80
2023/09/12 10:00:43;;;;;;;197.13;184.13;;;;;;;27.70;100.00;99690.88;5024134;28;20265;-80
2023/09/12 10:03:11;;;;;;;21.92;5.45;;;;;;;27.74;100.00;99672.47;5034881;28;20238;-80
2023/09/12 10:05:38;;;;;;;126.57;117.70;;;;;;;28.03;100.00;99706.50;5031693;28;20234;-80
2023/09/12 10:08:09;;;;;;;290.80;272.23;;;;;;;28.17;100.00;99661.97;5027497;28;20246;-79
2023/09/12 10:10:38;;;;;;;93.13;86.15;;;;;;;27.97;100.00;99605.56;5030424;28;20299;-80
2023/09/12 10:13:05;;;;;;;148.02;138.63;;;;;;;27.86;100.00;99570.16;5039835;28;20249;-80
2023/09/12 10:15:33;;;;;;;100.28;93.43;;;;;;;28.06;100.00;99599.41;5040424;28;20225;-80
2023/09/12 10:18:03;;;;;;;216.93;199.35;;;;;;;28.40;100.00;99605.00;5047906;28;20318;-80
2023/09/12 10:20:52;;;;;;;221.02;206.88;;;;;;;28.34;100.00;99555.53;5005444;28;20244;-80
2023/09/12 10:23:41;;;;;;;241.55;225.35;;;;;;;28.92;100.00;99610.84;5033909;28;20658;-80
2023/09/12 10:26:13;;;;;;;261.75;244.70;;;;;;;29.05;100.00;99536.38;5018939;28;20277;-80
2023/09/12 10:28:43;;;;;;;313.50;293.17;;;;;;;28.88;100.00;99484.16;5034367;28;20233;-80
2023/09/12 10:31:12;;;;;;;308.42;288.25;;;;;;;29.05;100.00;99487.34;5021462;28;20322;-80
2023/09/12 10:33:39;;;;;;;17.08;9.60;;;;;;;29.20;100.00;99442.53;5029012;28;20234;-80
2023/09/12 10:36:08;;;;;;;24.80;6.07;;;;;;;29.48;100.00;99419.31;5022298;28;20672;-80
2023/09/12 10:38:43;;;;;;;20.83;5.03;;;;;;;30.22;100.00;99464.66;5030042;28;20269;-80
2023/09/12 10:41:14;;;;;;;22.58;4.82;;;;;;;29.62;100.00;99349.00;5036467;28;20312;-80
2023/09/12 10:43:46;;;;;;;17.83;4.03;;;;;;;29.33;100.00;99281.69;5047961;28;20225;-81
2023/09/12 10:46:13;;;;;;;6.18;2.67;;;;;;;29.93;100.00;99357.25;5047812;28;20221;-80
2023/09/12 10:48:40;;;;;;;25.25;5.97;;;;;;;30.30;100.00;99364.94;5044073;28;20320;-81
2023/09/12 10:51:08;;;;;;;18.67;4.63;;;;;;;30.21;100.00;99287.53;5021300;28;20226;-81
2023/09/12 10:53:35;;;;;;;18.75;4.57;;;;;;;30.55;100.00;99323.53;5039750;28;20237;-80
2023/09/12 10:56:17;;;;;;;29.63;6.53;;;;;;;30.78;100.00;99299.59;5007706;28;20356;-81
2023/09/12 10:59:12;;;;;;;27.42;6.45;;;;;;;31.04;100.00;99287.09;5022106;28;20309;-81
2023/09/12 11:01:46;;;;;;;20.45;4.68;;;;;;;30.16;100.00;99143.44;5039535;28;20240;-80
2023/09/12 11:04:20;;;;;;;16.80;3.90;;;;;;;30.48;100.00;99219.53;5036517;28;20273;-80
2023/09/12 11:06:47;;;;;;;37.08;9.30;;;;;;;30.92;100.00;99221.88;5034057;28;20260;-81
2023/09/12 11:09:15;;;;;;;23.63;5.07;;;;;;;31.09;100.00;99186.50;5032544;28;20225;-80
2023/09/12 11:11:43;;;;;;;24.70;5.72;;;;;;;31.24;100.00;99167.00;5043692;28;20229;-81
2023/09/12 11:14:09;;;;;;;23.45;5.32;;;;;;;30.53;100.00;99069.94;5037610;28;20240;-80
2023/09/12 11:16:36;;;;;;;29.95;7.07;;;;;;;31.24;100.00;99143.25;5036902;28;20237;-80
2023/09/12 11:19:26;;;;;;;22.65;4.85;;;;;;;30.82;100.00;99019.91;5029871;28;20378;-81
2023/09/12 11:21:54;;;;;;;30.50;7.70;;;;;;;30.87;100.00;99023.91;5019716;28;20221;-81